Goliah — WDD5908 — position and weather

sailwx.info

Track history (hours):
 
Tides and Currents Weather Stations Pressure Air Temp Water Temp Dewpoint Dewpoint Depression Visibility Wind Speed Wind Dir Waves Ship Positions

Goliah

Owner: Crowley Marine Services, Seattle, WA. More information available from US FCC via Universal Licensing System and Coast Guard Vessel Documentation Center.

Last reported at 2017-Nov-20 00:30 UTC. Time now 2017-Nov-21 04:48 UTC.
Position N 37°48' W 122°24'.

Length 33 m; draft 4.8 m.

Type: Tug. MMSI: 366898250.

Date/timePositionNaut miles runAvg speedWind from/ knotsBaromVisibWave heightAir tempDewpointWater temp
2017-Nov-20 00:30N 37°48' W 122°24'3 5.8
2017-Nov-20 00:01N 37°49' W 122°20'0 0.1
2017-Nov-19 23:31N 37°49' W 122°20'0 0.5
2017-Nov-19 23:00N 37°49' W 122°20'0 0.0
2017-Nov-19 22:31N 37°49' W 122°20'1 2.3
2017-Nov-19 22:01N 37°49' W 122°21'510.2
2017-Nov-19 21:30N 37°53' W 122°25'611.1
2017-Nov-19 20:59N 37°59' W 122°25'510.2
2017-Nov-19 20:30N 38°02' W 122°21'5 9.6
2017-Nov-19 20:00N 38°04' W 122°15'5 8.4
2017-Nov-19 19:27N 38°02' W 122°09'1 0.8
2017-Nov-19 17:56N 38°02' W 122°08'1 3.1
2017-Nov-19 17:29N 38°02' W 122°10'1 2.2
2017-Nov-19 17:00N 38°03' W 122°11'3 6.2
2017-Nov-19 16:30N 38°04' W 122°14'4 8.4
2017-Nov-19 16:00N 38°03' W 122°20'5 9.4
2017-Nov-19 15:30N 38°00' W 122°24'5 9.2
2017-Nov-19 15:00N 37°56' W 122°26'5 9.4
2017-Nov-19 14:30N 37°51' W 122°24'5 9.6
2017-Nov-19 14:01N 37°48' W 122°19'0 0.3
2017-Nov-19 13:30N 37°48' W 122°19'0 0.0
2017-Nov-19 13:00N 37°48' W 122°19'1 1.5
2017-Nov-19 12:31N 37°48' W 122°20'3 6.0
2017-Nov-19 12:00N 37°48' W 122°24'0 0.0
2017-Nov-19 11:30N 37°48' W 122°24'0 0.0
2017-Nov-19 11:00N 37°48' W 122°24'0 0.0
2017-Nov-19 10:31N 37°48' W 122°24'0 0.0
2017-Nov-19 10:00N 37°48' W 122°24'5 9.3
2017-Nov-19 09:30N 37°53' W 122°25'5 9.8
2017-Nov-19 09:00N 37°58' W 122°26'5 9.2
2017-Nov-19 08:30N 38°01' W 122°23'5 9.3
2017-Nov-19 08:00N 38°03' W 122°17'4 9.0
2017-Nov-19 07:30N 38°03' W 122°11'3 6.3
2017-Nov-19 07:00N 38°02' W 122°08'0 0.0
2017-Nov-19 06:30N 38°02' W 122°08'1 1.6
2017-Nov-19 05:55N 38°02' W 122°09'0 0.0
2017-Nov-18 22:08N 38°02' W 122°09'1 0.8
2017-Nov-18 20:44N 38°02' W 122°08'0 1.8
2017-Nov-18 20:30N 38°02' W 122°08'2 0.5
2017-Nov-18 16:22N 38°03' W 122°11'3 9.3
2017-Nov-18 16:00N 38°04' W 122°15'1 1.6
2017-Nov-18 15:28N 38°03' W 122°16'0 0.0
2017-Nov-18 14:56N 38°03' W 122°16'1 2.1
2017-Nov-18 14:30N 38°03' W 122°15'0 0.0
2017-Nov-18 14:00N 38°03' W 122°15'0 0.0
2017-Nov-18 13:30N 38°03' W 122°15'0 0.0
2017-Nov-18 13:00N 38°03' W 122°15'0 0.0
2017-Nov-18 12:30N 38°03' W 122°15'0 0.0
2017-Nov-18 12:00N 38°03' W 122°15'0 0.1
2017-Nov-18 11:30N 38°03' W 122°15'0 0.1
2017-Nov-18 11:00N 38°03' W 122°15'0 0.0
2017-Nov-18 10:30N 38°03' W 122°15'0 0.0
2017-Nov-18 10:00N 38°03' W 122°15'0 0.0
2017-Nov-18 09:30N 38°03' W 122°15'0 0.0
2017-Nov-18 09:00N 38°03' W 122°15'0 0.0
2017-Nov-18 08:30N 38°03' W 122°15'0 0.0
2017-Nov-18 08:00N 38°03' W 122°15'0 0.0
2017-Nov-18 07:30N 38°03' W 122°15'0 0.0
2017-Nov-18 07:00N 38°03' W 122°15'0 0.0
2017-Nov-18 06:30N 38°03' W 122°15'0 0.0
2017-Nov-18 06:00N 38°03' W 122°15'0 0.0
2017-Nov-18 05:30N 38°03' W 122°15'0 0.0
2017-Nov-18 05:00N 38°03' W 122°15'0 0.0
2017-Nov-18 04:27N 38°03' W 122°15'0 0.0
2017-Nov-18 04:00N 38°03' W 122°15'4 7.0
2017-Nov-18 03:30N 38°03' W 122°19'4 8.6
2017-Nov-18 03:00N 38°01' W 122°24'4 8.7
2017-Nov-18 02:30N 37°57' W 122°26'5 9.1
2017-Nov-18 02:00N 37°52' W 122°24'5 9.7
2017-Nov-18 01:31N 37°48' W 122°21'3 5.3
2017-Nov-18 01:01N 37°48' W 122°18'0 0.1
2017-Nov-18 00:30N 37°48' W 122°18'1 1.1
2017-Nov-18 00:00N 37°48' W 122°18'1 1.1
2017-Nov-17 23:31N 37°48' W 122°19'4 7.5
2017-Nov-17 23:00N 37°48' W 122°24'0 0.0
2017-Nov-17 22:30N 37°48' W 122°24'0 0.0
2017-Nov-17 22:00N 37°48' W 122°24'0 0.0
2017-Nov-17 21:30N 37°48' W 122°24'0 0.0
2017-Nov-17 21:00N 37°48' W 122°24'0 0.0
2017-Nov-17 20:30N 37°48' W 122°24'0 0.0
2017-Nov-17 20:00N 37°48' W 122°24'0 0.0
2017-Nov-17 19:30N 37°48' W 122°24'0 0.0
2017-Nov-17 19:00N 37°48' W 122°24'0 0.0
2017-Nov-17 18:30N 37°48' W 122°24'0 0.0
2017-Nov-17 18:00N 37°48' W 122°24'0 0.0
2017-Nov-17 17:30N 37°48' W 122°24'0 0.0
2017-Nov-17 17:00N 37°48' W 122°24'0 0.0
2017-Nov-17 16:30N 37°48' W 122°24'0 0.0
2017-Nov-17 16:00N 37°48' W 122°24'0 0.0
2017-Nov-17 15:30N 37°48' W 122°24'0 0.0
2017-Nov-17 15:00N 37°48' W 122°24'0 0.0
2017-Nov-17 14:30N 37°48' W 122°24'0 0.0
2017-Nov-17 14:00N 37°48' W 122°24'0 0.0
2017-Nov-17 13:30N 37°48' W 122°24'3 6.0
2017-Nov-17 13:00N 37°49' W 122°28'3 6.2
2017-Nov-17 12:31N 37°49' W 122°31'4 9.0
2017-Nov-17 12:00N 37°51' W 122°26'4 7.9
2017-Nov-17 11:31N 37°55' W 122°27'611.9
2017-Nov-17 11:00N 38°00' W 122°25'611.5
2017-Nov-17 10:31N 38°03' W 122°18'5 9.2
2017-Nov-17 10:00N 38°04' W 122°13'4 7.2
2017-Nov-17 09:30N 38°02' W 122°09'1 0.6
2017-Nov-17 08:38N 38°02' W 122°08'0 0.4
2017-Nov-17 08:30N 38°02' W 122°08'1 0.5
2017-Nov-17 06:31N 38°02' W 122°09'0 8.8
2017-Nov-17 06:30N 38°02' W 122°09'1 0.6
2017-Nov-17 05:25N 38°02' W 122°08'1 0.1
2017-Nov-16 19:07N 38°02' W 122°09'1 1.3
2017-Nov-16 18:18N 38°03' W 122°08'2 7.0
2017-Nov-16 17:59N 38°03' W 122°11'612.3
2017-Nov-16 17:30N 38°03' W 122°18'711.9
2017-Nov-16 16:54N 37°59' W 122°25'512.2
2017-Nov-16 16:30N 37°54' W 122°25'510.6
2017-Nov-16 16:01N 37°50' W 122°22'2 3.1
2017-Nov-16 15:30N 37°49' W 122°20'0 0.0
2017-Nov-16 15:00N 37°49' W 122°20'0 0.0
2017-Nov-16 14:30N 37°49' W 122°20'0 0.0
2017-Nov-16 14:01N 37°49' W 122°20'0 0.0
2017-Nov-16 13:31N 37°49' W 122°20'1 1.4
2017-Nov-16 13:01N 37°48' W 122°20'1 2.4
2017-Nov-16 12:31N 37°48' W 122°19'1 1.3
2017-Nov-16 12:01N 37°48' W 122°19'2 4.8
2017-Nov-16 11:30N 37°48' W 122°22'1 2.3
2017-Nov-16 11:00N 37°48' W 122°24'0 0.0
2017-Nov-16 10:30N 37°48' W 122°24'0 0.0
2017-Nov-16 10:01N 37°48' W 122°24'0 0.0
2017-Nov-16 09:30N 37°48' W 122°24'0 0.0
2017-Nov-16 09:00N 37°48' W 122°24'0 0.0
2017-Nov-16 08:30N 37°48' W 122°24'0 0.0
2017-Nov-16 08:01N 37°48' W 122°24'0 0.0
2017-Nov-16 07:30N 37°48' W 122°24'0 0.0
2017-Nov-16 07:00N 37°48' W 122°24'0 0.0
2017-Nov-16 06:30N 37°48' W 122°24'0 0.0
2017-Nov-16 06:00N 37°48' W 122°24'0 0.0
2017-Nov-16 05:30N 37°48' W 122°24'0 0.0
2017-Nov-16 05:00N 37°48' W 122°24'0 0.0
2017-Nov-16 04:30N 37°48' W 122°24'0 0.0
2017-Nov-16 04:00N 37°48' W 122°24'4 7.4
2017-Nov-16 03:31N 37°48' W 122°19'1 1.3
2017-Nov-16 03:01N 37°48' W 122°18'1 1.9
2017-Nov-16 02:30N 37°47' W 122°17'0 0.0
2017-Nov-16 02:00N 37°47' W 122°17'0 0.0
2017-Nov-16 01:31N 37°47' W 122°17'0 0.0
2017-Nov-16 01:01N 37°47' W 122°17'0 0.0
2017-Nov-16 00:30N 37°47' W 122°17'0 0.0
2017-Nov-16 00:01N 37°47' W 122°17'0 0.0
2017-Nov-15 23:30N 37°47' W 122°17'0 0.0
2017-Nov-15 23:01N 37°47' W 122°17'0 0.0
2017-Nov-15 22:31N 37°47' W 122°17'0 0.0
2017-Nov-15 22:01N 37°47' W 122°17'0 0.0
2017-Nov-15 21:30N 37°47' W 122°17'0 0.0
2017-Nov-15 21:01N 37°47' W 122°17'0 0.0
2017-Nov-15 20:30N 37°47' W 122°17'0 0.0
2017-Nov-15 20:01N 37°47' W 122°17'0 0.0
2017-Nov-15 19:31N 37°47' W 122°17'0 0.0
2017-Nov-15 19:01N 37°47' W 122°17'0 0.0
2017-Nov-15 18:30N 37°47' W 122°17'0 0.0
2017-Nov-15 18:00N 37°47' W 122°17'0 0.0
2017-Nov-15 17:30N 37°47' W 122°17'0 0.0
2017-Nov-15 17:00N 37°47' W 122°17'0 0.0
2017-Nov-15 16:31N 37°47' W 122°17'0 0.0
2017-Nov-15 16:00N 37°47' W 122°17'0 0.0
2017-Nov-15 15:30N 37°47' W 122°17'0 0.0
2017-Nov-15 15:00N 37°47' W 122°17'0 0.0
2017-Nov-15 14:30N 37°47' W 122°17'0 0.0
2017-Nov-15 14:00N 37°47' W 122°17'0 0.0
2017-Nov-15 13:31N 37°47' W 122°17'0 0.0
2017-Nov-15 13:01N 37°47' W 122°17'0 0.1
2017-Nov-15 12:30N 37°47' W 122°17'0 0.1
2017-Nov-15 12:00N 37°47' W 122°17'0 0.0
2017-Nov-15 11:31N 37°47' W 122°17'0 0.0
2017-Nov-15 11:01N 37°47' W 122°17'0 0.0
2017-Nov-15 10:30N 37°47' W 122°17'0 0.0
2017-Nov-15 10:01N 37°47' W 122°17'0 0.1
2017-Nov-15 09:30N 37°47' W 122°17'0 0.1
2017-Nov-15 09:01N 37°47' W 122°17'0 0.0
2017-Nov-15 08:30N 37°47' W 122°17'0 0.0
2017-Nov-15 08:01N 37°47' W 122°17'0 0.0
2017-Nov-15 07:30N 37°47' W 122°17'0 0.0
2017-Nov-15 07:00N 37°47' W 122°17'0 0.0
2017-Nov-15 06:30N 37°47' W 122°17'0 0.0
2017-Nov-15 06:01N 37°47' W 122°17'0 0.0
2017-Nov-15 05:31N 37°47' W 122°17'0 0.0
2017-Nov-15 05:01N 37°47' W 122°17'0 0.0
2017-Nov-15 04:31N 37°47' W 122°17'0 0.1
2017-Nov-15 04:00N 37°47' W 122°17'0 0.1
2017-Nov-15 03:30N 37°47' W 122°17'0 0.0
2017-Nov-15 03:00N 37°47' W 122°17'0 0.1
2017-Nov-15 02:30N 37°47' W 122°17'0 0.1
2017-Nov-15 02:00N 37°47' W 122°17'0 0.0
2017-Nov-15 01:30N 37°47' W 122°17'0 0.0
2017-Nov-15 01:01N 37°47' W 122°17'0 0.0
2017-Nov-15 00:30N 37°47' W 122°17'0 0.0
2017-Nov-15 00:00N 37°47' W 122°17'0 0.0
2017-Nov-14 23:30N 37°47' W 122°17'0 0.0
2017-Nov-14 23:00N 37°47' W 122°17'0 0.0
2017-Nov-14 22:31N 37°47' W 122°17'0 0.0
2017-Nov-14 22:00N 37°47' W 122°17'0 0.0
2017-Nov-14 21:31N 37°47' W 122°17'0 0.0
2017-Nov-14 21:00N 37°47' W 122°17'0 0.0
2017-Nov-14 20:31N 37°47' W 122°17'0 0.0
2017-Nov-14 20:00N 37°47' W 122°17'0 0.0
2017-Nov-14 19:31N 37°47' W 122°17'0 0.0
2017-Nov-14 19:01N 37°47' W 122°17'0 0.0
2017-Nov-14 18:30N 37°47' W 122°17'0 0.0
2017-Nov-14 18:01N 37°47' W 122°17'0 0.0
2017-Nov-14 17:30N 37°47' W 122°17'0 0.0
2017-Nov-14 17:00N 37°47' W 122°17'0 0.0
2017-Nov-14 16:30N 37°47' W 122°17'0 0.1
2017-Nov-14 16:00N 37°47' W 122°17'0 0.1
2017-Nov-14 15:30N 37°47' W 122°17'0 0.0
2017-Nov-14 15:01N 37°47' W 122°17'0 0.0
2017-Nov-14 14:31N 37°47' W 122°17'0 0.0
2017-Nov-14 14:01N 37°47' W 122°17'0 0.0
2017-Nov-14 13:30N 37°47' W 122°17'0 0.0
2017-Nov-14 13:01N 37°47' W 122°17'0 0.1
2017-Nov-14 12:31N 37°47' W 122°17'0 0.1
2017-Nov-14 12:01N 37°47' W 122°17'0 0.0
2017-Nov-14 11:30N 37°47' W 122°17'0 0.0
2017-Nov-14 11:01N 37°47' W 122°17'0 0.0
2017-Nov-14 10:30N 37°47' W 122°17'0 0.0
2017-Nov-14 10:00N 37°47' W 122°17'0 0.0
2017-Nov-14 09:31N 37°47' W 122°17'0 0.1
2017-Nov-14 09:01N 37°47' W 122°17'0 0.1
2017-Nov-14 08:31N 37°47' W 122°17'0 0.0
2017-Nov-14 08:00N 37°47' W 122°17'0 0.0
2017-Nov-14 07:31N 37°47' W 122°17'0 0.0
2017-Nov-14 07:01N 37°47' W 122°17'0 0.0
2017-Nov-14 06:31N 37°47' W 122°17'0 0.0
2017-Nov-14 06:01N 37°47' W 122°17'0 0.0
2017-Nov-14 05:31N 37°47' W 122°17'0 0.0
2017-Nov-14 05:00N 37°47' W 122°17'0 0.0
2017-Nov-14 04:31N 37°47' W 122°17'0 0.0
2017-Nov-14 04:00N 37°47' W 122°17'0 0.0
2017-Nov-14 03:30N 37°47' W 122°17'0 0.0
2017-Nov-14 03:01N 37°47' W 122°17'0 0.0
2017-Nov-14 02:31N 37°47' W 122°17'0 0.0
2017-Nov-14 02:00N 37°47' W 122°17'0 0.0
2017-Nov-14 01:31N 37°47' W 122°17'0 0.0
2017-Nov-14 01:01N 37°47' W 122°17'0 0.0
2017-Nov-14 00:31N 37°47' W 122°17'0 0.0
2017-Nov-14 00:00N 37°47' W 122°17'0 0.0
2017-Nov-13 23:31N 37°47' W 122°17'0 0.0
2017-Nov-13 23:01N 37°47' W 122°17'0 0.0
2017-Nov-13 22:30N 37°47' W 122°17'0 0.0
2017-Nov-13 22:00N 37°47' W 122°17'16 0.8
2017-Nov-13 01:08N 38°02' W 122°09'1 0.7
2017-Nov-13 00:02N 38°02' W 122°08'0 8.4
2017-Nov-13 00:00N 38°02' W 122°09'1 0.1
2017-Nov-12 15:31N 38°02' W 122°09'0 0.0
2017-Nov-12 15:30N 38°02' W 122°09'1 0.8
2017-Nov-12 14:20N 38°02' W 122°08'1 3.8
2017-Nov-12 14:00N 38°02' W 122°10'1 1.7
2017-Nov-12 13:07N 38°02' W 122°08'0 3.8
2017-Nov-12 13:00N 38°02' W 122°08'1 0.1
2017-Nov-12 06:34N 38°02' W 122°09'111.3
2017-Nov-12 06:30N 38°02' W 122°09'1 1.9
2017-Nov-12 06:00N 38°02' W 122°08'4 7.0
2017-Nov-12 05:30N 38°03' W 122°12'510.2
2017-Nov-12 05:00N 38°03' W 122°18'610.3
2017-Nov-12 04:27N 38°00' W 122°24'4 9.1
2017-Nov-12 04:00N 37°56' W 122°26'1 1.8
2017-Nov-12 03:30N 37°56' W 122°25'0 0.0
2017-Nov-12 03:00N 37°56' W 122°25'0 0.0
2017-Nov-12 02:30N 37°56' W 122°25'0 0.0
2017-Nov-12 02:00N 37°56' W 122°25'0 0.0
2017-Nov-12 01:30N 37°56' W 122°25'0 0.0
2017-Nov-12 01:00N 37°56' W 122°25'0 0.0
2017-Nov-12 00:28N 37°56' W 122°25'0 0.0
2017-Nov-11 23:58N 37°56' W 122°25'0 0.0
2017-Nov-11 23:30N 37°56' W 122°25'0 0.0
2017-Nov-11 23:00N 37°56' W 122°25'0 0.0
2017-Nov-11 22:30N 37°56' W 122°25'0 0.0
2017-Nov-11 22:00N 37°56' W 122°25'0 0.0
2017-Nov-11 21:30N 37°56' W 122°25'0 0.0
2017-Nov-11 21:00N 37°56' W 122°25'0 0.0
2017-Nov-11 20:29N 37°56' W 122°25'1 1.1
2017-Nov-11 20:00N 37°56' W 122°25'510.6
2017-Nov-11 19:30N 38°01' W 122°23'611.3
2017-Nov-11 19:00N 38°03' W 122°17'610.3
2017-Nov-11 18:24N 38°02' W 122°09'1 0.9
2017-Nov-11 17:33N 38°02' W 122°08'011.1
2017-Nov-11 17:30N 38°02' W 122°09'611.8
2017-Nov-11 17:00N 38°04' W 122°16'612.4
2017-Nov-11 16:30N 38°01' W 122°23'611.2
2017-Nov-11 16:00N 37°56' W 122°26'611.7
2017-Nov-11 15:31N 37°50' W 122°23'5 9.7
2017-Nov-11 15:01N 37°48' W 122°18'0 1.0
2017-Nov-11 14:31N 37°48' W 122°18'1 1.3
2017-Nov-11 14:00N 37°48' W 122°19'1 1.7
2017-Nov-11 13:30N 37°48' W 122°20'611.8
2017-Nov-11 13:01N 37°53' W 122°24'3 5.9
2017-Nov-11 12:30N 37°56' W 122°25'0 0.0
2017-Nov-11 12:00N 37°56' W 122°25'1 1.9
2017-Nov-11 11:30N 37°55' W 122°25'2 4.4
2017-Nov-11 11:00N 37°53' W 122°25'3 5.9
2017-Nov-11 10:30N 37°50' W 122°24'2 3.0
2017-Nov-11 10:01N 37°48' W 122°24'0 0.0
2017-Nov-11 09:30N 37°48' W 122°24'0 0.0
2017-Nov-11 09:00N 37°48' W 122°24'0 0.0
2017-Nov-11 08:30N 37°48' W 122°24'0 0.0
2017-Nov-11 08:00N 37°48' W 122°24'0 0.0
2017-Nov-11 07:30N 37°48' W 122°24'0 0.0
2017-Nov-11 07:01N 37°48' W 122°24'0 0.0
2017-Nov-11 06:30N 37°48' W 122°24'0 0.0
2017-Nov-11 06:00N 37°48' W 122°24'0 0.0
2017-Nov-11 05:31N 37°48' W 122°24'0 0.0
2017-Nov-11 05:00N 37°48' W 122°24'0 0.0
2017-Nov-11 04:30N 37°48' W 122°24'0 0.0
2017-Nov-11 04:00N 37°48' W 122°24'0 0.0
2017-Nov-11 03:30N 37°48' W 122°24'0 0.0
2017-Nov-11 03:00N 37°48' W 122°24'0 0.0
2017-Nov-11 02:30N 37°48' W 122°24'0 0.0
2017-Nov-11 02:00N 37°48' W 122°24'0 0.0
2017-Nov-11 01:30N 37°48' W 122°24'0 0.0
2017-Nov-11 01:00N 37°48' W 122°24'0 0.0
2017-Nov-11 00:30N 37°48' W 122°24'510.5
2017-Nov-11 00:00N 37°53' W 122°25'2 4.6
2017-Nov-10 23:31N 37°56' W 122°25'0 0.1
2017-Nov-10 23:01N 37°56' W 122°25'1 2.1
2017-Nov-10 22:30N 37°56' W 122°26'4 7.9
2017-Nov-10 22:00N 38°00' W 122°24'4 9.0
2017-Nov-10 21:30N 38°03' W 122°20'5 9.7
2017-Nov-10 21:00N 38°04' W 122°14'4 0.7
2017-Nov-10 15:19N 38°02' W 122°09'1 0.5
2017-Nov-10 13:39N 38°02' W 122°08'0 2.5
2017-Nov-10 13:30N 38°02' W 122°09'2 2.4
2017-Nov-10 12:46N 38°03' W 122°11'2 7.6
2017-Nov-10 12:30N 38°04' W 122°13'4 8.5
2017-Nov-10 12:00N 38°03' W 122°18'510.4
2017-Nov-10 11:30N 38°00' W 122°24'510.7
2017-Nov-10 11:00N 37°55' W 122°25'611.4
2017-Nov-10 10:30N 37°50' W 122°23'510.5
2017-Nov-10 10:01N 37°45' W 122°21'0 0.7
2017-Nov-10 09:30N 37°45' W 122°22'4 7.9
2017-Nov-10 09:01N 37°49' W 122°24'510.3
2017-Nov-10 08:30N 37°48' W 122°30'1 1.4
2017-Nov-10 08:01N 37°48' W 122°30'0 0.7
2017-Nov-10 07:31N 37°48' W 122°30'0 0.4
2017-Nov-10 07:01N 37°48' W 122°30'1 2.6
2017-Nov-10 06:31N 37°49' W 122°29'4 7.6
2017-Nov-10 06:01N 37°48' W 122°24'0 0.6
2017-Nov-10 05:30N 37°48' W 122°24'0 0.0
2017-Nov-10 05:01N 37°48' W 122°24'3 6.3
2017-Nov-10 04:30N 37°49' W 122°28'2 4.8
2017-Nov-10 04:01N 37°49' W 122°31'4 7.0
2017-Nov-10 03:30N 37°50' W 122°27'5 9.0
2017-Nov-10 03:00N 37°55' W 122°27'612.5
2017-Nov-10 02:30N 38°01' W 122°24'510.2
2017-Nov-10 02:00N 38°03' W 122°18'4 8.5
2017-Nov-10 01:30N 38°04' W 122°13'4 7.2
2017-Nov-10 01:00N 38°02' W 122°09'  
Track history (hours):
 
Tides and Currents Weather Stations Pressure Air Temp Water Temp Dewpoint Dewpoint Depression Visibility Wind Speed Wind Dir Waves Ship Positions

Goliah

Owner: Crowley Marine Services, Seattle, WA. More information available from US FCC via Universal Licensing System and Coast Guard Vessel Documentation Center.

Last reported at 2017-Nov-20 00:30 UTC. Time now 2017-Nov-21 04:48 UTC.
Position N 37°48' W 122°24'.

Length 33 m; draft 4.8 m.

Type: Tug. MMSI: 366898250.

Date/timePositionNaut miles runAvg speedWind from/ knotsBaromVisibWave heightAir tempDewpointWater temp
2017-Nov-20 00:30N 37°48' W 122°24'3 5.8
2017-Nov-20 00:01N 37°49' W 122°20'0 0.1
2017-Nov-19 23:31N 37°49' W 122°20'0 0.5
2017-Nov-19 23:00N 37°49' W 122°20'0 0.0
2017-Nov-19 22:31N 37°49' W 122°20'1 2.3
2017-Nov-19 22:01N 37°49' W 122°21'510.2
2017-Nov-19 21:30N 37°53' W 122°25'611.1
2017-Nov-19 20:59N 37°59' W 122°25'510.2
2017-Nov-19 20:30N 38°02' W 122°21'5 9.6
2017-Nov-19 20:00N 38°04' W 122°15'5 8.4
2017-Nov-19 19:27N 38°02' W 122°09'1 0.8
2017-Nov-19 17:56N 38°02' W 122°08'1 3.1
2017-Nov-19 17:29N 38°02' W 122°10'1 2.2
2017-Nov-19 17:00N 38°03' W 122°11'3 6.2
2017-Nov-19 16:30N 38°04' W 122°14'4 8.4
2017-Nov-19 16:00N 38°03' W 122°20'5 9.4
2017-Nov-19 15:30N 38°00' W 122°24'5 9.2
2017-Nov-19 15:00N 37°56' W 122°26'5 9.4
2017-Nov-19 14:30N 37°51' W 122°24'5 9.6
2017-Nov-19 14:01N 37°48' W 122°19'0 0.3
2017-Nov-19 13:30N 37°48' W 122°19'0 0.0
2017-Nov-19 13:00N 37°48' W 122°19'1 1.5
2017-Nov-19 12:31N 37°48' W 122°20'3 6.0
2017-Nov-19 12:00N 37°48' W 122°24'0 0.0
2017-Nov-19 11:30N 37°48' W 122°24'0 0.0
2017-Nov-19 11:00N 37°48' W 122°24'0 0.0
2017-Nov-19 10:31N 37°48' W 122°24'0 0.0
2017-Nov-19 10:00N 37°48' W 122°24'5 9.3
2017-Nov-19 09:30N 37°53' W 122°25'5 9.8
2017-Nov-19 09:00N 37°58' W 122°26'5 9.2
2017-Nov-19 08:30N 38°01' W 122°23'5 9.3
2017-Nov-19 08:00N 38°03' W 122°17'4 9.0
2017-Nov-19 07:30N 38°03' W 122°11'3 6.3
2017-Nov-19 07:00N 38°02' W 122°08'0 0.0
2017-Nov-19 06:30N 38°02' W 122°08'1 1.6
2017-Nov-19 05:55N 38°02' W 122°09'0 0.0
2017-Nov-18 22:08N 38°02' W 122°09'1 0.8
2017-Nov-18 20:44N 38°02' W 122°08'0 1.8
2017-Nov-18 20:30N 38°02' W 122°08'2 0.5
2017-Nov-18 16:22N 38°03' W 122°11'3 9.3
2017-Nov-18 16:00N 38°04' W 122°15'1 1.6
2017-Nov-18 15:28N 38°03' W 122°16'0 0.0
2017-Nov-18 14:56N 38°03' W 122°16'1 2.1
2017-Nov-18 14:30N 38°03' W 122°15'0 0.0
2017-Nov-18 14:00N 38°03' W 122°15'0 0.0
2017-Nov-18 13:30N 38°03' W 122°15'0 0.0
2017-Nov-18 13:00N 38°03' W 122°15'0 0.0
2017-Nov-18 12:30N 38°03' W 122°15'0 0.0
2017-Nov-18 12:00N 38°03' W 122°15'0 0.1
2017-Nov-18 11:30N 38°03' W 122°15'0 0.1
2017-Nov-18 11:00N 38°03' W 122°15'0 0.0
2017-Nov-18 10:30N 38°03' W 122°15'0 0.0
2017-Nov-18 10:00N 38°03' W 122°15'0 0.0
2017-Nov-18 09:30N 38°03' W 122°15'0 0.0
2017-Nov-18 09:00N 38°03' W 122°15'0 0.0
2017-Nov-18 08:30N 38°03' W 122°15'0 0.0
2017-Nov-18 08:00N 38°03' W 122°15'0 0.0
2017-Nov-18 07:30N 38°03' W 122°15'0 0.0
2017-Nov-18 07:00N 38°03' W 122°15'0 0.0
2017-Nov-18 06:30N 38°03' W 122°15'0 0.0
2017-Nov-18 06:00N 38°03' W 122°15'0 0.0
2017-Nov-18 05:30N 38°03' W 122°15'0 0.0
2017-Nov-18 05:00N 38°03' W 122°15'0 0.0
2017-Nov-18 04:27N 38°03' W 122°15'0 0.0
2017-Nov-18 04:00N 38°03' W 122°15'4 7.0
2017-Nov-18 03:30N 38°03' W 122°19'4 8.6
2017-Nov-18 03:00N 38°01' W 122°24'4 8.7
2017-Nov-18 02:30N 37°57' W 122°26'5 9.1
2017-Nov-18 02:00N 37°52' W 122°24'5 9.7
2017-Nov-18 01:31N 37°48' W 122°21'3 5.3
2017-Nov-18 01:01N 37°48' W 122°18'0 0.1
2017-Nov-18 00:30N 37°48' W 122°18'1 1.1
2017-Nov-18 00:00N 37°48' W 122°18'1 1.1
2017-Nov-17 23:31N 37°48' W 122°19'4 7.5
2017-Nov-17 23:00N 37°48' W 122°24'0 0.0
2017-Nov-17 22:30N 37°48' W 122°24'0 0.0
2017-Nov-17 22:00N 37°48' W 122°24'0 0.0
2017-Nov-17 21:30N 37°48' W 122°24'0 0.0
2017-Nov-17 21:00N 37°48' W 122°24'0 0.0
2017-Nov-17 20:30N 37°48' W 122°24'0 0.0
2017-Nov-17 20:00N 37°48' W 122°24'0 0.0
2017-Nov-17 19:30N 37°48' W 122°24'0 0.0
2017-Nov-17 19:00N 37°48' W 122°24'0 0.0
2017-Nov-17 18:30N 37°48' W 122°24'0 0.0
2017-Nov-17 18:00N 37°48' W 122°24'0 0.0
2017-Nov-17 17:30N 37°48' W 122°24'0 0.0
2017-Nov-17 17:00N 37°48' W 122°24'0 0.0
2017-Nov-17 16:30N 37°48' W 122°24'0 0.0
2017-Nov-17 16:00N 37°48' W 122°24'0 0.0
2017-Nov-17 15:30N 37°48' W 122°24'0 0.0
2017-Nov-17 15:00N 37°48' W 122°24'0 0.0
2017-Nov-17 14:30N 37°48' W 122°24'0 0.0
2017-Nov-17 14:00N 37°48' W 122°24'0 0.0
2017-Nov-17 13:30N 37°48' W 122°24'3 6.0
2017-Nov-17 13:00N 37°49' W 122°28'3 6.2
2017-Nov-17 12:31N 37°49' W 122°31'4 9.0
2017-Nov-17 12:00N 37°51' W 122°26'4 7.9
2017-Nov-17 11:31N 37°55' W 122°27'611.9
2017-Nov-17 11:00N 38°00' W 122°25'611.5
2017-Nov-17 10:31N 38°03' W 122°18'5 9.2
2017-Nov-17 10:00N 38°04' W 122°13'4 7.2
2017-Nov-17 09:30N 38°02' W 122°09'1 0.6
2017-Nov-17 08:38N 38°02' W 122°08'0 0.4
2017-Nov-17 08:30N 38°02' W 122°08'1 0.5
2017-Nov-17 06:31N 38°02' W 122°09'0 8.8
2017-Nov-17 06:30N 38°02' W 122°09'1 0.6
2017-Nov-17 05:25N 38°02' W 122°08'1 0.1
2017-Nov-16 19:07N 38°02' W 122°09'1 1.3
2017-Nov-16 18:18N 38°03' W 122°08'2 7.0
2017-Nov-16 17:59N 38°03' W 122°11'612.3
2017-Nov-16 17:30N 38°03' W 122°18'711.9
2017-Nov-16 16:54N 37°59' W 122°25'512.2
2017-Nov-16 16:30N 37°54' W 122°25'510.6
2017-Nov-16 16:01N 37°50' W 122°22'2 3.1
2017-Nov-16 15:30N 37°49' W 122°20'0 0.0
2017-Nov-16 15:00N 37°49' W 122°20'0 0.0
2017-Nov-16 14:30N 37°49' W 122°20'0 0.0
2017-Nov-16 14:01N 37°49' W 122°20'0 0.0
2017-Nov-16 13:31N 37°49' W 122°20'1 1.4
2017-Nov-16 13:01N 37°48' W 122°20'1 2.4
2017-Nov-16 12:31N 37°48' W 122°19'1 1.3
2017-Nov-16 12:01N 37°48' W 122°19'2 4.8
2017-Nov-16 11:30N 37°48' W 122°22'1 2.3
2017-Nov-16 11:00N 37°48' W 122°24'0 0.0
2017-Nov-16 10:30N 37°48' W 122°24'0 0.0
2017-Nov-16 10:01N 37°48' W 122°24'0 0.0
2017-Nov-16 09:30N 37°48' W 122°24'0 0.0
2017-Nov-16 09:00N 37°48' W 122°24'0 0.0
2017-Nov-16 08:30N 37°48' W 122°24'0 0.0
2017-Nov-16 08:01N 37°48' W 122°24'0 0.0
2017-Nov-16 07:30N 37°48' W 122°24'0 0.0
2017-Nov-16 07:00N 37°48' W 122°24'0 0.0
2017-Nov-16 06:30N 37°48' W 122°24'0 0.0
2017-Nov-16 06:00N 37°48' W 122°24'0 0.0
2017-Nov-16 05:30N 37°48' W 122°24'0 0.0
2017-Nov-16 05:00N 37°48' W 122°24'0 0.0
2017-Nov-16 04:30N 37°48' W 122°24'0 0.0
2017-Nov-16 04:00N 37°48' W 122°24'4 7.4
2017-Nov-16 03:31N 37°48' W 122°19'1 1.3
2017-Nov-16 03:01N 37°48' W 122°18'1 1.9
2017-Nov-16 02:30N 37°47' W 122°17'0 0.0
2017-Nov-16 02:00N 37°47' W 122°17'0 0.0
2017-Nov-16 01:31N 37°47' W 122°17'0 0.0
2017-Nov-16 01:01N 37°47' W 122°17'0 0.0
2017-Nov-16 00:30N 37°47' W 122°17'0 0.0
2017-Nov-16 00:01N 37°47' W 122°17'0 0.0
2017-Nov-15 23:30N 37°47' W 122°17'0 0.0
2017-Nov-15 23:01N 37°47' W 122°17'0 0.0
2017-Nov-15 22:31N 37°47' W 122°17'0 0.0
2017-Nov-15 22:01N 37°47' W 122°17'0 0.0
2017-Nov-15 21:30N 37°47' W 122°17'0 0.0
2017-Nov-15 21:01N 37°47' W 122°17'0 0.0
2017-Nov-15 20:30N 37°47' W 122°17'0 0.0
2017-Nov-15 20:01N 37°47' W 122°17'0 0.0
2017-Nov-15 19:31N 37°47' W 122°17'0 0.0
2017-Nov-15 19:01N 37°47' W 122°17'0 0.0
2017-Nov-15 18:30N 37°47' W 122°17'0 0.0
2017-Nov-15 18:00N 37°47' W 122°17'0 0.0
2017-Nov-15 17:30N 37°47' W 122°17'0 0.0
2017-Nov-15 17:00N 37°47' W 122°17'0 0.0
2017-Nov-15 16:31N 37°47' W 122°17'0 0.0
2017-Nov-15 16:00N 37°47' W 122°17'0 0.0
2017-Nov-15 15:30N 37°47' W 122°17'0 0.0
2017-Nov-15 15:00N 37°47' W 122°17'0 0.0
2017-Nov-15 14:30N 37°47' W 122°17'0 0.0
2017-Nov-15 14:00N 37°47' W 122°17'0 0.0
2017-Nov-15 13:31N 37°47' W 122°17'0 0.0
2017-Nov-15 13:01N 37°47' W 122°17'0 0.1
2017-Nov-15 12:30N 37°47' W 122°17'0 0.1
2017-Nov-15 12:00N 37°47' W 122°17'0 0.0
2017-Nov-15 11:31N 37°47' W 122°17'0 0.0
2017-Nov-15 11:01N 37°47' W 122°17'0 0.0
2017-Nov-15 10:30N 37°47' W 122°17'0 0.0
2017-Nov-15 10:01N 37°47' W 122°17'0 0.1
2017-Nov-15 09:30N 37°47' W 122°17'0 0.1
2017-Nov-15 09:01N 37°47' W 122°17'0 0.0
2017-Nov-15 08:30N 37°47' W 122°17'0 0.0
2017-Nov-15 08:01N 37°47' W 122°17'0 0.0
2017-Nov-15 07:30N 37°47' W 122°17'0 0.0
2017-Nov-15 07:00N 37°47' W 122°17'0 0.0
2017-Nov-15 06:30N 37°47' W 122°17'0 0.0
2017-Nov-15 06:01N 37°47' W 122°17'0 0.0
2017-Nov-15 05:31N 37°47' W 122°17'0 0.0
2017-Nov-15 05:01N 37°47' W 122°17'0 0.0
2017-Nov-15 04:31N 37°47' W 122°17'0 0.1
2017-Nov-15 04:00N 37°47' W 122°17'0 0.1
2017-Nov-15 03:30N 37°47' W 122°17'0 0.0
2017-Nov-15 03:00N 37°47' W 122°17'0 0.1
2017-Nov-15 02:30N 37°47' W 122°17'0 0.1
2017-Nov-15 02:00N 37°47' W 122°17'0 0.0
2017-Nov-15 01:30N 37°47' W 122°17'0 0.0
2017-Nov-15 01:01N 37°47' W 122°17'0 0.0
2017-Nov-15 00:30N 37°47' W 122°17'0 0.0
2017-Nov-15 00:00N 37°47' W 122°17'0 0.0
2017-Nov-14 23:30N 37°47' W 122°17'0 0.0
2017-Nov-14 23:00N 37°47' W 122°17'0 0.0
2017-Nov-14 22:31N 37°47' W 122°17'0 0.0
2017-Nov-14 22:00N 37°47' W 122°17'0 0.0
2017-Nov-14 21:31N 37°47' W 122°17'0 0.0
2017-Nov-14 21:00N 37°47' W 122°17'0 0.0
2017-Nov-14 20:31N 37°47' W 122°17'0 0.0
2017-Nov-14 20:00N 37°47' W 122°17'0 0.0
2017-Nov-14 19:31N 37°47' W 122°17'0 0.0
2017-Nov-14 19:01N 37°47' W 122°17'0 0.0
2017-Nov-14 18:30N 37°47' W 122°17'0 0.0
2017-Nov-14 18:01N 37°47' W 122°17'0 0.0
2017-Nov-14 17:30N 37°47' W 122°17'0 0.0
2017-Nov-14 17:00N 37°47' W 122°17'0 0.0
2017-Nov-14 16:30N 37°47' W 122°17'0 0.1
2017-Nov-14 16:00N 37°47' W 122°17'0 0.1
2017-Nov-14 15:30N 37°47' W 122°17'0 0.0
2017-Nov-14 15:01N 37°47' W 122°17'0 0.0
2017-Nov-14 14:31N 37°47' W 122°17'0 0.0
2017-Nov-14 14:01N 37°47' W 122°17'0 0.0
2017-Nov-14 13:30N 37°47' W 122°17'0 0.0
2017-Nov-14 13:01N 37°47' W 122°17'0 0.1
2017-Nov-14 12:31N 37°47' W 122°17'0 0.1
2017-Nov-14 12:01N 37°47' W 122°17'0 0.0
2017-Nov-14 11:30N 37°47' W 122°17'0 0.0
2017-Nov-14 11:01N 37°47' W 122°17'0 0.0
2017-Nov-14 10:30N 37°47' W 122°17'0 0.0
2017-Nov-14 10:00N 37°47' W 122°17'0 0.0
2017-Nov-14 09:31N 37°47' W 122°17'0 0.1
2017-Nov-14 09:01N 37°47' W 122°17'0 0.1
2017-Nov-14 08:31N 37°47' W 122°17'0 0.0
2017-Nov-14 08:00N 37°47' W 122°17'0 0.0
2017-Nov-14 07:31N 37°47' W 122°17'0 0.0
2017-Nov-14 07:01N 37°47' W 122°17'0 0.0
2017-Nov-14 06:31N 37°47' W 122°17'0 0.0
2017-Nov-14 06:01N 37°47' W 122°17'0 0.0
2017-Nov-14 05:31N 37°47' W 122°17'0 0.0
2017-Nov-14 05:00N 37°47' W 122°17'0 0.0
2017-Nov-14 04:31N 37°47' W 122°17'0 0.0
2017-Nov-14 04:00N 37°47' W 122°17'0 0.0
2017-Nov-14 03:30N 37°47' W 122°17'0 0.0
2017-Nov-14 03:01N 37°47' W 122°17'0 0.0
2017-Nov-14 02:31N 37°47' W 122°17'0 0.0
2017-Nov-14 02:00N 37°47' W 122°17'0 0.0
2017-Nov-14 01:31N 37°47' W 122°17'0 0.0
2017-Nov-14 01:01N 37°47' W 122°17'0 0.0
2017-Nov-14 00:31N 37°47' W 122°17'0 0.0
2017-Nov-14 00:00N 37°47' W 122°17'0 0.0
2017-Nov-13 23:31N 37°47' W 122°17'0 0.0
2017-Nov-13 23:01N 37°47' W 122°17'0 0.0
2017-Nov-13 22:30N 37°47' W 122°17'0 0.0
2017-Nov-13 22:00N 37°47' W 122°17'16 0.8
2017-Nov-13 01:08N 38°02' W 122°09'1 0.7
2017-Nov-13 00:02N 38°02' W 122°08'0 8.4
2017-Nov-13 00:00N 38°02' W 122°09'1 0.1
2017-Nov-12 15:31N 38°02' W 122°09'0 0.0
2017-Nov-12 15:30N 38°02' W 122°09'1 0.8
2017-Nov-12 14:20N 38°02' W 122°08'1 3.8
2017-Nov-12 14:00N 38°02' W 122°10'1 1.7
2017-Nov-12 13:07N 38°02' W 122°08'0 3.8
2017-Nov-12 13:00N 38°02' W 122°08'1 0.1
2017-Nov-12 06:34N 38°02' W 122°09'111.3
2017-Nov-12 06:30N 38°02' W 122°09'1 1.9
2017-Nov-12 06:00N 38°02' W 122°08'4 7.0
2017-Nov-12 05:30N 38°03' W 122°12'510.2
2017-Nov-12 05:00N 38°03' W 122°18'610.3
2017-Nov-12 04:27N 38°00' W 122°24'4 9.1
2017-Nov-12 04:00N 37°56' W 122°26'1 1.8
2017-Nov-12 03:30N 37°56' W 122°25'0 0.0
2017-Nov-12 03:00N 37°56' W 122°25'0 0.0
2017-Nov-12 02:30N 37°56' W 122°25'0 0.0
2017-Nov-12 02:00N 37°56' W 122°25'0 0.0
2017-Nov-12 01:30N 37°56' W 122°25'0 0.0
2017-Nov-12 01:00N 37°56' W 122°25'0 0.0
2017-Nov-12 00:28N 37°56' W 122°25'0 0.0
2017-Nov-11 23:58N 37°56' W 122°25'0 0.0
2017-Nov-11 23:30N 37°56' W 122°25'0 0.0
2017-Nov-11 23:00N 37°56' W 122°25'0 0.0
2017-Nov-11 22:30N 37°56' W 122°25'0 0.0
2017-Nov-11 22:00N 37°56' W 122°25'0 0.0
2017-Nov-11 21:30N 37°56' W 122°25'0 0.0
2017-Nov-11 21:00N 37°56' W 122°25'0 0.0
2017-Nov-11 20:29N 37°56' W 122°25'1 1.1
2017-Nov-11 20:00N 37°56' W 122°25'510.6
2017-Nov-11 19:30N 38°01' W 122°23'611.3
2017-Nov-11 19:00N 38°03' W 122°17'610.3
2017-Nov-11 18:24N 38°02' W 122°09'1 0.9
2017-Nov-11 17:33N 38°02' W 122°08'011.1
2017-Nov-11 17:30N 38°02' W 122°09'611.8
2017-Nov-11 17:00N 38°04' W 122°16'612.4
2017-Nov-11 16:30N 38°01' W 122°23'611.2
2017-Nov-11 16:00N 37°56' W 122°26'611.7
2017-Nov-11 15:31N 37°50' W 122°23'5 9.7
2017-Nov-11 15:01N 37°48' W 122°18'0 1.0
2017-Nov-11 14:31N 37°48' W 122°18'1 1.3
2017-Nov-11 14:00N 37°48' W 122°19'1 1.7
2017-Nov-11 13:30N 37°48' W 122°20'611.8
2017-Nov-11 13:01N 37°53' W 122°24'3 5.9
2017-Nov-11 12:30N 37°56' W 122°25'0 0.0
2017-Nov-11 12:00N 37°56' W 122°25'1 1.9
2017-Nov-11 11:30N 37°55' W 122°25'2 4.4
2017-Nov-11 11:00N 37°53' W 122°25'3 5.9
2017-Nov-11 10:30N 37°50' W 122°24'2 3.0
2017-Nov-11 10:01N 37°48' W 122°24'0 0.0
2017-Nov-11 09:30N 37°48' W 122°24'0 0.0
2017-Nov-11 09:00N 37°48' W 122°24'0 0.0
2017-Nov-11 08:30N 37°48' W 122°24'0 0.0
2017-Nov-11 08:00N 37°48' W 122°24'0 0.0
2017-Nov-11 07:30N 37°48' W 122°24'0 0.0
2017-Nov-11 07:01N 37°48' W 122°24'0 0.0
2017-Nov-11 06:30N 37°48' W 122°24'0 0.0
2017-Nov-11 06:00N 37°48' W 122°24'0 0.0
2017-Nov-11 05:31N 37°48' W 122°24'0 0.0
2017-Nov-11 05:00N 37°48' W 122°24'0 0.0
2017-Nov-11 04:30N 37°48' W 122°24'0 0.0
2017-Nov-11 04:00N 37°48' W 122°24'0 0.0
2017-Nov-11 03:30N 37°48' W 122°24'0 0.0
2017-Nov-11 03:00N 37°48' W 122°24'0 0.0
2017-Nov-11 02:30N 37°48' W 122°24'0 0.0
2017-Nov-11 02:00N 37°48' W 122°24'0 0.0
2017-Nov-11 01:30N 37°48' W 122°24'0 0.0
2017-Nov-11 01:00N 37°48' W 122°24'0 0.0
2017-Nov-11 00:30N 37°48' W 122°24'510.5
2017-Nov-11 00:00N 37°53' W 122°25'2 4.6
2017-Nov-10 23:31N 37°56' W 122°25'0 0.1
2017-Nov-10 23:01N 37°56' W 122°25'1 2.1
2017-Nov-10 22:30N 37°56' W 122°26'4 7.9
2017-Nov-10 22:00N 38°00' W 122°24'4 9.0
2017-Nov-10 21:30N 38°03' W 122°20'5 9.7
2017-Nov-10 21:00N 38°04' W 122°14'4 0.7
2017-Nov-10 15:19N 38°02' W 122°09'1 0.5
2017-Nov-10 13:39N 38°02' W 122°08'0 2.5
2017-Nov-10 13:30N 38°02' W 122°09'2 2.4
2017-Nov-10 12:46N 38°03' W 122°11'2 7.6
2017-Nov-10 12:30N 38°04' W 122°13'4 8.5
2017-Nov-10 12:00N 38°03' W 122°18'510.4
2017-Nov-10 11:30N 38°00' W 122°24'510.7
2017-Nov-10 11:00N 37°55' W 122°25'611.4
2017-Nov-10 10:30N 37°50' W 122°23'510.5
2017-Nov-10 10:01N 37°45' W 122°21'0 0.7
2017-Nov-10 09:30N 37°45' W 122°22'4 7.9
2017-Nov-10 09:01N 37°49' W 122°24'510.3
2017-Nov-10 08:30N 37°48' W 122°30'1 1.4
2017-Nov-10 08:01N 37°48' W 122°30'0 0.7
2017-Nov-10 07:31N 37°48' W 122°30'0 0.4
2017-Nov-10 07:01N 37°48' W 122°30'1 2.6
2017-Nov-10 06:31N 37°49' W 122°29'4 7.6
2017-Nov-10 06:01N 37°48' W 122°24'0 0.6
2017-Nov-10 05:30N 37°48' W 122°24'0 0.0
2017-Nov-10 05:01N 37°48' W 122°24'3 6.3
2017-Nov-10 04:30N 37°49' W 122°28'2 4.8
2017-Nov-10 04:01N 37°49' W 122°31'4 7.0
2017-Nov-10 03:30N 37°50' W 122°27'5 9.0
2017-Nov-10 03:00N 37°55' W 122°27'612.5
2017-Nov-10 02:30N 38°01' W 122°24'510.2
2017-Nov-10 02:00N 38°03' W 122°18'4 8.5
2017-Nov-10 01:30N 38°04' W 122°13'4 7.2
2017-Nov-10 01:00N 38°02' W 122°09'  

Dump ship's entire track history